createdAt,value
2022-12-22T00:04:31.599Z,54.20
2022-12-22T00:14:52.500Z,53.10
2022-12-22T00:25:12.531Z,49.80
2022-12-22T00:35:33.436Z,51.60
2022-12-22T00:45:54.939Z,61.93
2022-12-22T00:56:14.919Z,65.60
2022-12-22T01:06:35.294Z,85.20
2022-12-22T01:16:55.181Z,97.50
2022-12-22T01:27:15.451Z,69.00
2022-12-22T01:37:35.653Z,91.80
2022-12-22T01:47:55.420Z,61.73
2022-12-22T01:58:15.932Z,51.73
2022-12-22T02:08:43.266Z,51.90
2022-12-22T02:19:15.515Z,46.00
2022-12-22T02:29:40.745Z,40.17
2022-12-22T02:40:21.151Z,49.93
2022-12-22T02:50:57.686Z,46.73
2022-12-22T03:01:20.080Z,45.07
2022-12-22T03:11:40.353Z,44.47
2022-12-22T03:22:00.518Z,38.93
2022-12-22T03:32:02.166Z,35.50
2022-12-22T03:42:22.777Z,38.10
2022-12-22T03:52:24.260Z,34.57
2022-12-22T04:02:25.817Z,32.00
2022-12-22T04:12:46.440Z,37.13
2022-12-22T04:22:49.713Z,35.70
2022-12-22T04:32:51.151Z,35.70
2022-12-22T04:42:55.011Z,46.60
2022-12-22T04:52:56.475Z,34.90
2022-12-22T05:02:58.111Z,36.07
2022-12-22T05:12:59.688Z,31.97
2022-12-22T05:23:01.162Z,33.90
2022-12-22T05:33:02.790Z,43.30
2022-12-22T05:43:05.625Z,46.20
2022-12-22T05:53:07.877Z,51.33
2022-12-22T06:03:11.043Z,47.77
2022-12-22T06:13:12.677Z,62.27
2022-12-22T06:23:14.251Z,59.93
2022-12-22T06:33:16.120Z,68.93
2022-12-22T06:43:17.592Z,60.47
2022-12-22T06:53:19.136Z,51.00
2022-12-22T07:03:20.756Z,53.50
2022-12-22T07:13:24.072Z,59.03
2022-12-22T07:23:26.157Z,37.20
2022-12-22T07:33:27.715Z,38.13
2022-12-22T07:43:29.584Z,27.40
2022-12-22T07:53:32.669Z,28.60
2022-12-22T08:03:35.590Z,16.47
2022-12-22T08:13:37.987Z,15.93
2022-12-22T08:23:39.816Z,20.33
2022-12-22T08:33:41.444Z,11.03
2022-12-22T08:43:42.876Z,11.57
2022-12-22T08:54:04.385Z,17.67
2022-12-22T09:04:09.287Z,13.07
2022-12-22T09:14:11.775Z,9.80
2022-12-22T09:24:13.452Z,13.43
2022-12-22T09:34:18.151Z,3.97
2022-12-22T09:44:27.641Z,12.90
2022-12-22T09:54:30.687Z,13.63
2022-12-22T10:04:52.962Z,12.30
2022-12-22T10:14:55.505Z,11.43
2022-12-22T10:25:00.553Z,12.60
2022-12-22T10:35:05.198Z,12.13
2022-12-22T10:45:08.059Z,10.60
2022-12-22T10:55:21.370Z,10.20
2022-12-22T11:05:23.022Z,8.30
2022-12-22T11:15:49.456Z,8.60
2022-12-22T11:25:58.757Z,16.70
2022-12-22T11:36:09.816Z,24.10
2022-12-22T11:46:38.724Z,24.10
2022-12-22T11:56:47.331Z,25.47
2022-12-22T12:07:00.850Z,25.17
2022-12-22T12:17:17.717Z,22.60
2022-12-22T12:27:45.921Z,25.07
2022-12-22T12:37:54.187Z,21.50
2022-12-22T12:48:24.660Z,24.37
2022-12-22T12:58:51.565Z,25.87
2022-12-22T13:19:38.024Z,26.87
2022-12-22T13:29:45.576Z,24.50
2022-12-22T13:40:14.611Z,27.63
2022-12-22T13:50:26.198Z,27.27
2022-12-22T14:00:28.753Z,26.87
2022-12-22T14:10:34.511Z,29.13
2022-12-22T14:20:38.125Z,25.20
2022-12-22T14:30:45.327Z,25.60
2022-12-22T14:40:52.517Z,27.60
2022-12-22T14:50:58.336Z,28.50
2022-12-22T15:01:15.884Z,25.57
2022-12-22T15:11:19.210Z,26.20
2022-12-22T15:21:23.150Z,23.97
2022-12-22T15:31:24.699Z,21.33
2022-12-22T15:41:26.312Z,24.10
2022-12-22T15:51:29.762Z,23.60
2022-12-22T16:01:31.375Z,22.77
2022-12-22T16:11:33.019Z,26.00
2022-12-22T16:21:34.615Z,27.50
2022-12-22T16:31:36.364Z,25.07
2022-12-22T16:41:37.899Z,26.00
2022-12-22T16:51:49.263Z,25.37
2022-12-22T17:01:53.996Z,26.13
2022-12-22T17:12:01.019Z,24.13
2022-12-22T17:22:02.577Z,29.50
2022-12-22T17:32:04.471Z,30.30
2022-12-22T17:42:32.208Z,31.23
2022-12-22T17:52:34.886Z,30.37
2022-12-22T18:02:36.872Z,30.03
2022-12-22T18:12:39.899Z,27.70
2022-12-22T18:22:41.886Z,26.57
2022-12-22T18:32:43.401Z,30.00
2022-12-22T18:42:44.874Z,28.43
2022-12-22T18:52:47.849Z,25.50
2022-12-22T19:02:52.129Z,24.00
2022-12-22T19:12:56.321Z,23.77
2022-12-22T19:23:00.250Z,22.50
2022-12-22T19:33:03.549Z,26.00
2022-12-22T19:43:05.233Z,30.43
2022-12-22T19:53:06.742Z,28.27
2022-12-22T20:03:12.576Z,30.33
2022-12-22T20:13:18.745Z,31.70
2022-12-22T20:23:23.744Z,26.70
2022-12-22T20:33:26.613Z,29.20
2022-12-22T20:43:30.409Z,24.60
2022-12-22T20:53:32.300Z,29.97
2022-12-22T21:03:33.825Z,36.13
2022-12-22T21:13:35.344Z,36.63
2022-12-22T21:23:36.900Z,36.37
2022-12-22T21:33:38.351Z,32.50
2022-12-22T21:43:39.816Z,35.23
2022-12-22T21:53:41.317Z,37.97
2022-12-22T22:03:42.913Z,38.03
2022-12-22T22:13:44.507Z,25.37
2022-12-22T22:23:46.124Z,29.37
2022-12-22T22:33:50.755Z,26.43
2022-12-22T22:43:55.479Z,21.27
2022-12-22T22:53:56.905Z,18.50
2022-12-22T23:03:58.683Z,18.57
2022-12-22T23:14:00.433Z,19.10
2022-12-22T23:24:02.052Z,14.73
2022-12-22T23:34:03.935Z,35.30
2022-12-22T23:44:05.455Z,6.77
2022-12-22T23:54:06.910Z,7.63
